METAR Data
IDs: Format: Raw Decoded Include TAF

Data at: 0623 UTC 11 Dec 2018

PAVA 110556Z AUTO 32012KT 10SM -SN SCT038 OVC046 M07/M10 A2891 RMK AO2 SNB0458 SLP874 P0000 60000 T10721100 11067 21128 53002 FZRANO
PAVA 110456Z AUTO 32017KT 10SM BKN038 OVC045 M07/M09 A2889 RMK AO2 SNE12B36E48 SLP867 P0000 T10721094 FZRANO
PAVA 110356Z AUTO 33013KT 10SM -SN OVC038 M08/M09 A2889 RMK AO2 SLP870 P0000 T10781089 FZRANO
PAVA 110322Z AUTO 32008KT 6SM -SN BR FEW017 BKN035 OVC042 M09/M11 A2889 RMK AO2 P0000 FZRANO
PAVA 110256Z AUTO 33009KT 9SM -SN BKN019 BKN037 M11/M12 A2890 RMK AO2 SNB01 SLP873 P0000 60000 T11061117 53008 FZRANO
PAVA 110248Z AUTO 33009KT 9SM -SN BKN019 BKN026 BKN037 M11/M12 A2890 RMK AO2 SNB01 P0000 FZRANO
PAVA 110156Z AUTO 33008KT 10SM FEW035 M12/M13 A2888 RMK AO2 SNB13E25 SLP867 P0000 T11171133 FZRANO
PAVA 110056Z AUTO 31010KT 10SM CLR M11/M13 A2888 RMK AO2 SLP866 T11111128 FZRANO
PAVA 102356Z AUTO 36010KT 10SM CLR M11/M12 A2888 RMK AO2 SLP865 60000 T11061122 11094 21128 58002 FZRANO
PAVA 102256Z AUTO 35014KT 10SM CLR M11/M12 A2888 RMK AO2 SLP865 T11111117 FZRANO
PAVA 102156Z AUTO 34010KT 10SM SCT032 M12/M14 A2888 RMK AO2 SNB03E40 SLP867 P0000 T11221139 FZRANO
PAVA 102107Z AUTO 36009KT 10SM -SN FEW020 SCT026 M10/M11 A2888 RMK AO2 SNB03 P0000 FZRANO
PAVA 102056Z AUTO 01014KT 9SM SCT021 BKN026 M09/M11 A2888 RMK AO2 SNB18E52 SLP867 P0000 60000 T10941106 53007 FZRANO
PAVA 101956Z AUTO 35012KT 10SM OVC016 M11/M12 A2888 RMK AO2 SNE10B27E40 SLP865 P0000 T11061117 FZRANO
PAVA 101925Z AUTO 35013KT 10SM BKN014 M12/M13 A2887 RMK AO2 SNE10 P0000 FZRANO
PAVA 101917Z AUTO 35011KT 10SM SCT014 M11/M13 A2887 RMK AO2 SNE10 P0000 FZRANO
PAVA 101856Z AUTO 01014KT 8SM -SN BKN014 M10/M11 A2886 RMK AO2 SLP861 P0000 T11001111 FZRANO
PAVA 101853Z AUTO 01015KT 8SM -SN BKN014 M10/M11 A2886 RMK AO2 P0000 FZRANO
PAVA 101814Z AUTO 02015KT 9SM -SN BKN016 M12/M14 A2886 RMK AO2 P0000 FZRANO
PAVA 101756Z AUTO 02013KT 9SM -SN CLR M13/M14 A2886 RMK AO2 SLP858 P0000 60000 T11281139 11128 21144 58006 FZRANO
PAVA 101720Z AUTO 02010KT 4SM -SN BR FEW013 M14/M15 A2887 RMK AO2 P0000 FZRANO
PAVA 101656Z AUTO 01010KT 9SM -SN BKN011 M13/M14 A2887 RMK AO2 SNB1557 CIG 007V013 SLP863 P0000 T11281139 FZRANO
PAVA 101618Z AUTO 01012KT 9SM -SN FEW003 SCT010 M13/M15 A2888 RMK AO2 SNB1557 P0000 FZRANO
PAVA 101556Z AUTO 02012KT 10SM FEW003 BKN010 M13/M15 A2887 RMK AO2 SNB03E13 CIG 008V012 SLP864 P0000 T11331150 FZRANO
PAVA 101551Z AUTO 36011KT 10SM BKN010 M13/M15 A2888 RMK AO2 SNB03E13 CIG 008V012 P0000 FZRANO
PAVA 101456Z AUTO 02012KT 10SM CLR M13/M14 A2888 RMK AO2 SNE28 SLP866 P0000 60000 T11331144 55004 FZRANO
PAVA 101356Z AUTO 02016KT 9SM -SN CLR M13/M14 A2887 RMK AO2 SNE20B46 SLP864 P0000 T11281139 FZRANO
PAVA 101256Z AUTO 02016KT 9SM -SN CLR M14/M15 A2888 RMK AO2 SNB13 SLP866 P0000 T11391150 FZRANO
PAVA 101156Z AUTO 01014KT 9SM CLR M14/M15 A2889 RMK AO2 SNE53 SLP870 P0000 60000 T11391150 11128 21150 58013 FZRANO
PAVA 101056Z AUTO 01005KT 9SM -SN CLR M14/M16 A2891 RMK AO2 SNB26 SLP876 P0000 T11441161 FZRANO
PAVA 100956Z AUTO 06006KT 10SM OVC033 M13/M15 A2892 RMK AO2 SNE16 SLP879 P0000 T11331150 FZRANO
PAVA 100856Z AUTO 03009KT 9SM -SN FEW026 M14/M16 A2893 RMK AO2 SNB12 SLP882 P0000 60000 T11391156 56006 FZRANO
PAVA 100853Z AUTO 03008KT 9SM -SN SCT026 M14/M15 A2893 RMK AO2 SNB12 P0000 FZRANO
PAVA 100820Z AUTO 02011KT 9SM -SN BKN026 M13/M14 A2894 RMK AO2 SNB12 P0000 FZRANO
PAVA 100756Z AUTO 01014KT 10SM CLR M13/M15 A2894 RMK AO2 SNE48 SLP884 P0000 T11331150 410561144 FZRANO
PAVA 100656Z AUTO 02011KT 5SM -SN BR SCT003 M13/M14 A2895 RMK AO2 SLP888 P0000 T11281139 FZRANO
PAVA 100648Z AUTO 01012KT 5SM BR SCT001 M13/M14 A2895 RMK AO2 SNE46 P0000 FZRANO
PAVA 100644Z AUTO 02010KT 2SM -SN BR BKN001 M13/M14 A2895 RMK AO2 VIS 3/4V5 CIG 001V004 P0000 FZRANO
PAVA 100639Z AUTO 03009KT 1SM -SN BR BKN001 M13/M14 A2895 RMK AO2 CIG 001V004 P0000 FZRANO
PAVA 100621Z AUTO 02011KT 1/2SM FZFG BKN001 M14/M15 A2895 RMK AO2 SNE17 P0000 FZRANO
PAVA 100615Z AUTO 01011KT 3/4SM -SN BR VV002 M13/M15 A2895 RMK AO2 P0000 FZRANO
PAVA 100612Z AUTO 03009KT 1/2SM -SN FZFG BKN001 M14/M15 A2895 RMK AO2 P0000 FZRANO
PAVA 100556Z AUTO 03009KT 1/4SM -SN FZFG OVC001 M13/M14 A2895 RMK AO2 SLP889 P0000 60000 T11281139 11100 21144 58004 FZRANO
PAVA 100546Z AUTO 04009KT 1/4SM -SN FZFG OVC001 M12/M14 A2895 RMK AO2 P0000 FZRANO
PAVA 100515Z AUTO 04007KT 1/2SM -SN FZFG OVC001 M12/M13 A2896 RMK AO2 P0000 FZRANO
PAVA 100456Z AUTO 04006KT 1/4SM -SN FZFG OVC001 M11/M12 A2896 RMK AO2 SLP892 P0000 T11111122 FZRANO
PAVA 100356Z AUTO 03009KT 1/4SM -SN FZFG OVC001 M11/M12 A2896 RMK AO2 SLP891 P0000 T11061117 FZRANO
PAVA 100256Z AUTO 07006KT 1/4SM -SN FZFG OVC001 M13/M14 A2896 RMK AO2 SLP893 P0000 60000 T11331144 56006 FZRANO
PAVA 100248Z AUTO 06008KT 1/4SM -SN FZFG OVC001 M13/M14 A2896 RMK AO2 P0000 FZRANO
PAVA 100237Z AUTO 06008KT 1/2SM -SN FZFG OVC001 M13/M14 A2896 RMK AO2 P0000 FZRANO
PAVA 100213Z AUTO 06007KT 1/4SM -SN FZFG OVC001 M12/M12 A2897 RMK AO2 P0000 FZRANO
PAVA 100156Z AUTO 06006KT 1/4SM -SN FZFG OVC003 M11/M12 A2897 RMK AO2 SLP895 P0000 T11111122 FZRANO
PAVA 100141Z AUTO 05006KT 1/4SM -SN FZFG OVC003 M11/M12 A2897 RMK AO2 P0000 FZRANO
PAVA 100134Z AUTO 05006KT 3/4SM -SN BR OVC003 M12/M12 A2897 RMK AO2 P0000 FZRANO
PAVA 100131Z AUTO 05005KT 1 3/4SM BR OVC003 M12/M13 A2897 RMK AO2 SNE22 P0000 FZRANO
PAVA 100100Z AUTO 05007KT 4SM -SN BR OVC003 M13/M14 A2897 RMK AO2 P0000 FZRANO
PAVA 100056Z AUTO 05007KT 1 1/4SM -SN BR OVC003 M14/M15 A2897 RMK AO2 SLP896 P0000 T11391150 FZRANO
PAVA 100037Z AUTO 06006KT 1/2SM -SN FZFG OVC003 M14/M16 A2898 RMK AO2 CIG 001V005 P0000 FZRANO
PAVA 100027Z AUTO 04008KT 1/4SM -SN FZFG OVC003 M14/M16 A2898 RMK AO2 CIG 001V005 P0000 FZRANO
PAVA 100007Z AUTO 05007KT 1/4SM -SN FZFG OVC001 M13/M14 A2898 RMK AO2 CIG 001V004 P0000 FZRANO
PAVA 092356Z AUTO 05006KT 1/2SM -SN FZFG OVC001 M13/M14 A2898 RMK AO2 SNB17 CIG 001V004 SLP899 P0000 60000 T11281139 11056 21139 56005 FZRANO
PAVA 092348Z AUTO 07006KT 1/2SM -SN FZFG OVC001 M13/M14 A2898 RMK AO2 SNB17 CIG 001V004 P0000 FZRANO
PAVA 092323Z AUTO 06008KT 1/4SM -SN FZFG OVC001 M14/M15 A2898 RMK AO2 SNB17 P0000 FZRANO
PAVA 092307Z AUTO 05006KT 1/2SM FZFG OVC001 M13/M14 A2898 RMK AO2 FZRANO
PAVA 092258Z AUTO 05006KT 3/4SM BR BKN001 M12/M13 A2899 RMK AO2 FZRANO
PAVA 092256Z AUTO 06005KT 1 1/2SM BR BKN001 M12/M14 A2899 RMK AO2 SLP901 T11221139 FZRANO
PAVA 092245Z AUTO 04005KT 1 3/4SM BR FEW001 M12/M13 A2899 RMK AO2 FZRANO
PAVA 092234Z AUTO 06005KT 5SM BR FEW001 M11/M12 A2899 RMK AO2 FZRANO
PAVA 092221Z AUTO 04005KT 1 3/4SM BR FEW002 M09/M10 A2899 RMK AO2 FZRANO
PAVA 092156Z AUTO 01004KT 10SM CLR M08/M10 A2899 RMK AO2 SNE01 SLP901 P0000 T10831100 FZRANO
PAVA 092056Z AUTO 32004KT 9SM -SN OVC040 M07/M09 A2900 RMK AO2 SLP904 P0000 60000 T10671094 58001 FZRANO
PAVA 091956Z AUTO 36006KT 9SM -SN OVC044 M06/M09 A2900 RMK AO2 SLP904 P0000 T10611094 FZRANO
PAVA 091856Z AUTO 29004KT 9SM -SN OVC040 M06/M09 A2900 RMK AO2 SNE22B40 SLP905 P0000 T10611089 FZRANO